sensor_id;sensor_type;location;lat;lon;timestamp;P1;durP1;ratioP1;P2;durP2;ratioP2
70545;SDS011;58098;51.680;5.134;2023-02-28T00:00:24;11.15;;;7.13;;
70545;SDS011;58098;51.680;5.134;2023-02-28T00:02:50;9.50;;;6.83;;
70545;SDS011;58098;51.680;5.134;2023-02-28T00:05:17;12.82;;;7.22;;
70545;SDS011;58098;51.680;5.134;2023-02-28T00:07:44;12.47;;;6.33;;
70545;SDS011;58098;51.680;5.134;2023-02-28T00:10:11;12.13;;;6.60;;
70545;SDS011;58098;51.680;5.134;2023-02-28T00:12:38;9.82;;;6.70;;
70545;SDS011;58098;51.680;5.134;2023-02-28T00:15:08;9.80;;;7.00;;
70545;SDS011;58098;51.680;5.134;2023-02-28T00:17:35;11.80;;;7.17;;
70545;SDS011;58098;51.680;5.134;2023-02-28T00:20:00;14.27;;;7.60;;
70545;SDS011;58098;51.680;5.134;2023-02-28T00:22:27;10.52;;;6.78;;
70545;SDS011;58098;51.680;5.134;2023-02-28T00:24:53;11.15;;;7.13;;
70545;SDS011;58098;51.680;5.134;2023-02-28T00:27:18;11.87;;;7.23;;
70545;SDS011;58098;51.680;5.134;2023-02-28T00:29:43;9.83;;;6.70;;
70545;SDS011;58098;51.680;5.134;2023-02-28T00:32:11;11.05;;;6.88;;
70545;SDS011;58098;51.680;5.134;2023-02-28T00:34:36;11.93;;;7.13;;
70545;SDS011;58098;51.680;5.134;2023-02-28T00:37:06;12.13;;;6.88;;
70545;SDS011;58098;51.680;5.134;2023-02-28T00:39:34;11.33;;;7.00;;
70545;SDS011;58098;51.680;5.134;2023-02-28T00:42:00;13.27;;;7.70;;
70545;SDS011;58098;51.680;5.134;2023-02-28T00:44:26;13.17;;;7.23;;
70545;SDS011;58098;51.680;5.134;2023-02-28T00:46:51;15.37;;;7.40;;
70545;SDS011;58098;51.680;5.134;2023-02-28T00:49:16;9.83;;;6.73;;
70545;SDS011;58098;51.680;5.134;2023-02-28T00:51:42;15.60;;;7.00;;
70545;SDS011;58098;51.680;5.134;2023-02-28T00:54:08;11.50;;;6.90;;
70545;SDS011;58098;51.680;5.134;2023-02-28T00:56:33;10.73;;;6.37;;
70545;SDS011;58098;51.680;5.134;2023-02-28T00:58:58;10.90;;;7.13;;
70545;SDS011;58098;51.680;5.134;2023-02-28T01:01:23;9.40;;;6.57;;
70545;SDS011;58098;51.680;5.134;2023-02-28T01:03:49;10.97;;;7.03;;
70545;SDS011;58098;51.680;5.134;2023-02-28T01:06:14;11.33;;;6.83;;
70545;SDS011;58098;51.680;5.134;2023-02-28T01:08:39;11.40;;;7.07;;
70545;SDS011;58098;51.680;5.134;2023-02-28T01:11:09;12.88;;;6.88;;
70545;SDS011;58098;51.680;5.134;2023-02-28T01:13:36;9.82;;;6.18;;
70545;SDS011;58098;51.680;5.134;2023-02-28T01:16:02;15.33;;;7.07;;
70545;SDS011;58098;51.680;5.134;2023-02-28T01:18:27;10.93;;;6.63;;
70545;SDS011;58098;51.680;5.134;2023-02-28T01:20:53;8.85;;;5.90;;
70545;SDS011;58098;51.680;5.134;2023-02-28T01:23:19;9.20;;;6.07;;
70545;SDS011;58098;51.680;5.134;2023-02-28T01:25:47;9.68;;;6.22;;
70545;SDS011;58098;51.680;5.134;2023-02-28T01:28:12;9.20;;;6.13;;
70545;SDS011;58098;51.680;5.134;2023-02-28T01:30:38;12.13;;;6.30;;
70545;SDS011;58098;51.680;5.134;2023-02-28T01:33:03;12.53;;;7.10;;
70545;SDS011;58098;51.680;5.134;2023-02-28T01:35:28;8.70;;;5.70;;
70545;SDS011;58098;51.680;5.134;2023-02-28T01:37:56;13.35;;;6.63;;
70545;SDS011;58098;51.680;5.134;2023-02-28T01:40:22;10.57;;;6.70;;
70545;SDS011;58098;51.680;5.134;2023-02-28T01:42:47;8.23;;;5.97;;
70545;SDS011;58098;51.680;5.134;2023-02-28T01:47:55;13.50;;;6.22;;
70545;SDS011;58098;51.680;5.134;2023-02-28T01:50:25;9.07;;;6.00;;
70545;SDS011;58098;51.680;5.134;2023-02-28T01:52:55;11.77;;;5.87;;
70545;SDS011;58098;51.680;5.134;2023-02-28T01:55:23;8.57;;;5.53;;
70545;SDS011;58098;51.680;5.134;2023-02-28T01:57:54;8.70;;;6.07;;
70545;SDS011;58098;51.680;5.134;2023-02-28T02:00:23;10.65;;;6.60;;
70545;SDS011;58098;51.680;5.134;2023-02-28T02:02:53;9.60;;;6.10;;
70545;SDS011;58098;51.680;5.134;2023-02-28T02:05:22;8.20;;;6.03;;
70545;SDS011;58098;51.680;5.134;2023-02-28T02:07:53;9.85;;;6.38;;
70545;SDS011;58098;51.680;5.134;2023-02-28T02:10:31;8.82;;;6.15;;
70545;SDS011;58098;51.680;5.134;2023-02-28T02:24:36;12.13;;;6.82;;
70545;SDS011;58098;51.680;5.134;2023-02-28T02:41:49;10.52;;;6.50;;
70545;SDS011;58098;51.680;5.134;2023-02-28T02:47:08;9.57;;;6.03;;
70545;SDS011;58098;51.680;5.134;2023-02-28T02:49:37;9.77;;;5.68;;
70545;SDS011;58098;51.680;5.134;2023-02-28T02:52:06;10.65;;;5.55;;
70545;SDS011;58098;51.680;5.134;2023-02-28T02:54:36;11.50;;;6.40;;
70545;SDS011;58098;51.680;5.134;2023-02-28T02:57:09;10.65;;;5.55;;
70545;SDS011;58098;51.680;5.134;2023-02-28T02:59:39;9.37;;;6.17;;
70545;SDS011;58098;51.680;5.134;2023-02-28T03:02:07;8.35;;;6.20;;
70545;SDS011;58098;51.680;5.134;2023-02-28T03:04:39;10.27;;;6.15;;
70545;SDS011;58098;51.680;5.134;2023-02-28T03:07:25;7.03;;;5.72;;
70545;SDS011;58098;51.680;5.134;2023-02-28T03:09:51;8.30;;;5.90;;
70545;SDS011;58098;51.680;5.134;2023-02-28T03:12:18;9.68;;;6.32;;
70545;SDS011;58098;51.680;5.134;2023-02-28T03:17:25;11.83;;;5.23;;
70545;SDS011;58098;51.680;5.134;2023-02-28T03:20:17;8.88;;;5.85;;
70545;SDS011;58098;51.680;5.134;2023-02-28T03:22:50;10.18;;;5.90;;
70545;SDS011;58098;51.680;5.134;2023-02-28T03:26:12;10.90;;;6.03;;
70545;SDS011;58098;51.680;5.134;2023-02-28T03:28:46;8.93;;;6.00;;
70545;SDS011;58098;51.680;5.134;2023-02-28T03:34:03;12.77;;;5.97;;
70545;SDS011;58098;51.680;5.134;2023-02-28T03:36:38;10.63;;;5.90;;
70545;SDS011;58098;51.680;5.134;2023-02-28T03:39:14;11.80;;;6.10;;
70545;SDS011;58098;51.680;5.134;2023-02-28T03:41:43;8.65;;;5.90;;
70545;SDS011;58098;51.680;5.134;2023-02-28T03:44:16;9.07;;;5.87;;
70545;SDS011;58098;51.680;5.134;2023-02-28T03:46:48;9.77;;;5.30;;
70545;SDS011;58098;51.680;5.134;2023-02-28T03:49:20;7.38;;;5.35;;
70545;SDS011;58098;51.680;5.134;2023-02-28T03:51:50;9.95;;;5.32;;
70545;SDS011;58098;51.680;5.134;2023-02-28T03:54:18;9.57;;;6.18;;
70545;SDS011;58098;51.680;5.134;2023-02-28T04:02:02;10.63;;;5.88;;
70545;SDS011;58098;51.680;5.134;2023-02-28T04:04:27;9.73;;;5.83;;
70545;SDS011;58098;51.680;5.134;2023-02-28T04:06:53;9.80;;;6.25;;
70545;SDS011;58098;51.680;5.134;2023-02-28T04:09:26;10.90;;;6.10;;
70545;SDS011;58098;51.680;5.134;2023-02-28T04:11:52;9.07;;;5.93;;
70545;SDS011;58098;51.680;5.134;2023-02-28T04:14:20;9.40;;;6.30;;
70545;SDS011;58098;51.680;5.134;2023-02-28T04:16:46;9.83;;;6.00;;
70545;SDS011;58098;51.680;5.134;2023-02-28T04:19:12;10.18;;;6.30;;
70545;SDS011;58098;51.680;5.134;2023-02-28T04:21:39;8.68;;;5.97;;
70545;SDS011;58098;51.680;5.134;2023-02-28T04:24:07;9.07;;;6.80;;
70545;SDS011;58098;51.680;5.134;2023-02-28T04:26:39;7.83;;;5.67;;
70545;SDS011;58098;51.680;5.134;2023-02-28T04:29:05;8.68;;;6.20;;
70545;SDS011;58098;51.680;5.134;2023-02-28T04:31:32;11.45;;;6.05;;
70545;SDS011;58098;51.680;5.134;2023-02-28T04:33:58;13.27;;;6.18;;
70545;SDS011;58098;51.680;5.134;2023-02-28T04:36:23;9.03;;;6.10;;
70545;SDS011;58098;51.680;5.134;2023-02-28T04:38:48;10.50;;;6.17;;
70545;SDS011;58098;51.680;5.134;2023-02-28T04:41:14;12.45;;;6.07;;
70545;SDS011;58098;51.680;5.134;2023-02-28T04:43:40;8.17;;;5.63;;
70545;SDS011;58098;51.680;5.134;2023-02-28T04:46:06;8.52;;;5.43;;
70545;SDS011;58098;51.680;5.134;2023-02-28T04:48:33;9.45;;;6.32;;
70545;SDS011;58098;51.680;5.134;2023-02-28T04:51:01;8.83;;;6.10;;
70545;SDS011;58098;51.680;5.134;2023-02-28T04:53:28;9.55;;;6.07;;
70545;SDS011;58098;51.680;5.134;2023-02-28T04:55:54;10.23;;;6.47;;
70545;SDS011;58098;51.680;5.134;2023-02-28T04:58:20;10.55;;;6.32;;
70545;SDS011;58098;51.680;5.134;2023-02-28T05:00:47;8.33;;;5.80;;
70545;SDS011;58098;51.680;5.134;2023-02-28T05:03:13;14.75;;;6.47;;
70545;SDS011;58098;51.680;5.134;2023-02-28T05:05:38;8.37;;;6.00;;
70545;SDS011;58098;51.680;5.134;2023-02-28T05:08:04;11.03;;;5.87;;
70545;SDS011;58098;51.680;5.134;2023-02-28T05:10:30;10.98;;;5.75;;
70545;SDS011;58098;51.680;5.134;2023-02-28T05:12:55;10.17;;;5.87;;
70545;SDS011;58098;51.680;5.134;2023-02-28T05:15:21;10.37;;;5.73;;
70545;SDS011;58098;51.680;5.134;2023-02-28T05:17:46;9.13;;;5.68;;
70545;SDS011;58098;51.680;5.134;2023-02-28T05:20:12;12.07;;;6.60;;
70545;SDS011;58098;51.680;5.134;2023-02-28T05:22:38;11.50;;;6.93;;
70545;SDS011;58098;51.680;5.134;2023-02-28T05:25:04;9.53;;;5.97;;
70545;SDS011;58098;51.680;5.134;2023-02-28T05:27:30;9.02;;;6.70;;
70545;SDS011;58098;51.680;5.134;2023-02-28T05:29:56;10.25;;;6.35;;
70545;SDS011;58098;51.680;5.134;2023-02-28T05:32:21;12.57;;;6.40;;
70545;SDS011;58098;51.680;5.134;2023-02-28T05:34:47;11.17;;;6.73;;
70545;SDS011;58098;51.680;5.134;2023-02-28T05:37:12;12.33;;;6.43;;
70545;SDS011;58098;51.680;5.134;2023-02-28T05:39:39;8.75;;;6.70;;
70545;SDS011;58098;51.680;5.134;2023-02-28T05:42:04;8.13;;;5.60;;
70545;SDS011;58098;51.680;5.134;2023-02-28T05:44:30;10.98;;;5.93;;
70545;SDS011;58098;51.680;5.134;2023-02-28T05:46:55;11.80;;;6.33;;
70545;SDS011;58098;51.680;5.134;2023-02-28T05:49:21;8.80;;;6.43;;
70545;SDS011;58098;51.680;5.134;2023-02-28T05:51:46;7.07;;;6.07;;
70545;SDS011;58098;51.680;5.134;2023-02-28T05:54:12;11.77;;;6.80;;
70545;SDS011;58098;51.680;5.134;2023-02-28T05:56:37;12.23;;;6.10;;
70545;SDS011;58098;51.680;5.134;2023-02-28T05:59:04;10.02;;;6.10;;
70545;SDS011;58098;51.680;5.134;2023-02-28T06:01:34;8.63;;;5.60;;
70545;SDS011;58098;51.680;5.134;2023-02-28T06:04:02;10.05;;;6.30;;
70545;SDS011;58098;51.680;5.134;2023-02-28T06:06:29;10.73;;;6.68;;
70545;SDS011;58098;51.680;5.134;2023-02-28T06:08:55;11.25;;;6.47;;
70545;SDS011;58098;51.680;5.134;2023-02-28T06:11:21;10.52;;;6.30;;
70545;SDS011;58098;51.680;5.134;2023-02-28T06:13:52;11.23;;;6.13;;
70545;SDS011;58098;51.680;5.134;2023-02-28T06:16:19;9.80;;;6.68;;
70545;SDS011;58098;51.680;5.134;2023-02-28T06:18:44;10.87;;;6.73;;
70545;SDS011;58098;51.680;5.134;2023-02-28T06:21:10;9.93;;;6.70;;
70545;SDS011;58098;51.680;5.134;2023-02-28T06:23:37;9.10;;;6.28;;
70545;SDS011;58098;51.680;5.134;2023-02-28T06:26:02;9.33;;;6.43;;
70545;SDS011;58098;51.680;5.134;2023-02-28T06:28:27;8.30;;;5.70;;
70545;SDS011;58098;51.680;5.134;2023-02-28T06:30:53;12.57;;;5.93;;
70545;SDS011;58098;51.680;5.134;2023-02-28T06:33:18;9.63;;;5.63;;
70545;SDS011;58098;51.680;5.134;2023-02-28T06:35:44;9.47;;;5.80;;
70545;SDS011;58098;51.680;5.134;2023-02-28T06:38:11;7.57;;;6.13;;
70545;SDS011;58098;51.680;5.134;2023-02-28T06:40:37;8.63;;;5.90;;
70545;SDS011;58098;51.680;5.134;2023-02-28T06:43:02;10.50;;;5.70;;
70545;SDS011;58098;51.680;5.134;2023-02-28T06:45:28;7.03;;;4.78;;
70545;SDS011;58098;51.680;5.134;2023-02-28T06:47:54;8.60;;;5.30;;
70545;SDS011;58098;51.680;5.134;2023-02-28T06:50:20;7.97;;;5.28;;
70545;SDS011;58098;51.680;5.134;2023-02-28T06:52:45;8.90;;;5.17;;
70545;SDS011;58098;51.680;5.134;2023-02-28T06:55:11;6.30;;;5.30;;
70545;SDS011;58098;51.680;5.134;2023-02-28T06:57:37;9.33;;;5.70;;
70545;SDS011;58098;51.680;5.134;2023-02-28T07:00:07;7.28;;;5.03;;
70545;SDS011;58098;51.680;5.134;2023-02-28T07:02:35;12.40;;;5.55;;
70545;SDS011;58098;51.680;5.134;2023-02-28T07:05:01;7.18;;;5.40;;
70545;SDS011;58098;51.680;5.134;2023-02-28T07:07:26;10.57;;;5.57;;
70545;SDS011;58098;51.680;5.134;2023-02-28T07:09:51;11.27;;;5.57;;
70545;SDS011;58098;51.680;5.134;2023-02-28T07:12:17;8.63;;;5.20;;
70545;SDS011;58098;51.680;5.134;2023-02-28T07:14:42;8.57;;;5.67;;
70545;SDS011;58098;51.680;5.134;2023-02-28T07:17:08;9.52;;;5.53;;
70545;SDS011;58098;51.680;5.134;2023-02-28T07:19:35;8.73;;;5.33;;
70545;SDS011;58098;51.680;5.134;2023-02-28T07:22:01;7.47;;;5.07;;
70545;SDS011;58098;51.680;5.134;2023-02-28T07:24:27;10.43;;;5.37;;
70545;SDS011;58098;51.680;5.134;2023-02-28T07:26:54;9.07;;;5.28;;
70545;SDS011;58098;51.680;5.134;2023-02-28T07:29:19;10.13;;;5.57;;
70545;SDS011;58098;51.680;5.134;2023-02-28T07:31:45;6.67;;;4.87;;
70545;SDS011;58098;51.680;5.134;2023-02-28T07:34:11;7.20;;;5.18;;
70545;SDS011;58098;51.680;5.134;2023-02-28T07:36:37;8.33;;;4.80;;
70545;SDS011;58098;51.680;5.134;2023-02-28T07:39:02;10.90;;;5.17;;
70545;SDS011;58098;51.680;5.134;2023-02-28T07:41:27;7.17;;;4.77;;
70545;SDS011;58098;51.680;5.134;2023-02-28T07:43:54;9.90;;;5.60;;
70545;SDS011;58098;51.680;5.134;2023-02-28T07:46:22;8.73;;;5.32;;
70545;SDS011;58098;51.680;5.134;2023-02-28T07:48:47;9.17;;;4.70;;
70545;SDS011;58098;51.680;5.134;2023-02-28T07:51:12;8.37;;;4.20;;
70545;SDS011;58098;51.680;5.134;2023-02-28T07:53:38;9.70;;;4.43;;
70545;SDS011;58098;51.680;5.134;2023-02-28T07:56:03;6.20;;;3.87;;
70545;SDS011;58098;51.680;5.134;2023-02-28T07:58:30;8.50;;;3.75;;
70545;SDS011;58098;51.680;5.134;2023-02-28T08:00:55;9.67;;;4.47;;
70545;SDS011;58098;51.680;5.134;2023-02-28T08:03:22;7.75;;;4.20;;
70545;SDS011;58098;51.680;5.134;2023-02-28T08:05:48;6.32;;;3.70;;
70545;SDS011;58098;51.680;5.134;2023-02-28T08:08:15;4.70;;;3.65;;
70545;SDS011;58098;51.680;5.134;2023-02-28T08:10:41;4.75;;;3.60;;
70545;SDS011;58098;51.680;5.134;2023-02-28T08:13:09;5.03;;;3.63;;
70545;SDS011;58098;51.680;5.134;2023-02-28T08:15:35;6.30;;;3.67;;
70545;SDS011;58098;51.680;5.134;2023-02-28T08:18:01;8.60;;;3.45;;
70545;SDS011;58098;51.680;5.134;2023-02-28T08:20:27;3.90;;;3.30;;
70545;SDS011;58098;51.680;5.134;2023-02-28T08:22:52;5.07;;;3.87;;
70545;SDS011;58098;51.680;5.134;2023-02-28T08:25:17;3.97;;;3.10;;
70545;SDS011;58098;51.680;5.134;2023-02-28T08:27:43;3.80;;;3.13;;
70545;SDS011;58098;51.680;5.134;2023-02-28T08:30:12;3.83;;;2.80;;
70545;SDS011;58098;51.680;5.134;2023-02-28T08:32:38;4.75;;;2.78;;
70545;SDS011;58098;51.680;5.134;2023-02-28T08:35:05;3.80;;;3.35;;
70545;SDS011;58098;51.680;5.134;2023-02-28T08:37:30;3.93;;;3.00;;
70545;SDS011;58098;51.680;5.134;2023-02-28T08:39:56;4.10;;;3.13;;
70545;SDS011;58098;51.680;5.134;2023-02-28T08:42:21;3.43;;;3.13;;
70545;SDS011;58098;51.680;5.134;2023-02-28T08:44:46;3.93;;;2.80;;
70545;SDS011;58098;51.680;5.134;2023-02-28T08:47:12;4.10;;;3.10;;
70545;SDS011;58098;51.680;5.134;2023-02-28T08:49:37;3.57;;;3.20;;
70545;SDS011;58098;51.680;5.134;2023-02-28T08:52:03;3.35;;;2.78;;
70545;SDS011;58098;51.680;5.134;2023-02-28T08:54:28;4.00;;;2.53;;
70545;SDS011;58098;51.680;5.134;2023-02-28T08:56:56;3.05;;;2.75;;
70545;SDS011;58098;51.680;5.134;2023-02-28T08:59:21;4.60;;;2.50;;
70545;SDS011;58098;51.680;5.134;2023-02-28T09:01:47;3.73;;;2.53;;
70545;SDS011;58098;51.680;5.134;2023-02-28T09:04:12;2.60;;;2.40;;
70545;SDS011;58098;51.680;5.134;2023-02-28T09:06:37;2.70;;;2.50;;
70545;SDS011;58098;51.680;5.134;2023-02-28T09:09:03;3.10;;;2.80;;
70545;SDS011;58098;51.680;5.134;2023-02-28T09:11:31;3.08;;;2.78;;
70545;SDS011;58098;51.680;5.134;2023-02-28T09:13:57;3.03;;;2.73;;
70545;SDS011;58098;51.680;5.134;2023-02-28T09:16:24;3.63;;;2.75;;
70545;SDS011;58098;51.680;5.134;2023-02-28T09:18:49;4.87;;;3.03;;
70545;SDS011;58098;51.680;5.134;2023-02-28T09:21:15;4.78;;;2.95;;
70545;SDS011;58098;51.680;5.134;2023-02-28T09:23:43;4.70;;;3.20;;
70545;SDS011;58098;51.680;5.134;2023-02-28T09:26:13;3.80;;;3.30;;
70545;SDS011;58098;51.680;5.134;2023-02-28T09:28:49;5.10;;;3.08;;
70545;SDS011;58098;51.680;5.134;2023-02-28T09:31:15;5.67;;;3.17;;
70545;SDS011;58098;51.680;5.134;2023-02-28T09:33:42;3.20;;;2.70;;
70545;SDS011;58098;51.680;5.134;2023-02-28T09:36:07;3.10;;;2.72;;
70545;SDS011;58098;51.680;5.134;2023-02-28T09:38:32;3.73;;;2.80;;
70545;SDS011;58098;51.680;5.134;2023-02-28T09:40:59;3.17;;;2.87;;
70545;SDS011;58098;51.680;5.134;2023-02-28T09:43:29;2.90;;;2.60;;
70545;SDS011;58098;51.680;5.134;2023-02-28T09:48:45;2.75;;;2.45;;
70545;SDS011;58098;51.680;5.134;2023-02-28T09:53:41;2.80;;;2.60;;
70545;SDS011;58098;51.680;5.134;2023-02-28T09:56:11;3.97;;;2.80;;
70545;SDS011;58098;51.680;5.134;2023-02-28T09:58:49;2.83;;;2.50;;
70545;SDS011;58098;51.680;5.134;2023-02-28T10:04:11;4.40;;;2.80;;
70545;SDS011;58098;51.680;5.134;2023-02-28T10:06:50;3.55;;;2.30;;
70545;SDS011;58098;51.680;5.134;2023-02-28T10:09:21;3.67;;;2.67;;
70545;SDS011;58098;51.680;5.134;2023-02-28T10:12:01;3.88;;;2.33;;
70545;SDS011;58098;51.680;5.134;2023-02-28T10:14:29;2.72;;;2.53;;
70545;SDS011;58098;51.680;5.134;2023-02-28T10:17:08;3.73;;;2.87;;
70545;SDS011;58098;51.680;5.134;2023-02-28T10:25:00;2.60;;;2.33;;
70545;SDS011;58098;51.680;5.134;2023-02-28T10:27:30;3.22;;;2.78;;
70545;SDS011;58098;51.680;5.134;2023-02-28T10:29:59;2.83;;;2.47;;
70545;SDS011;58098;51.680;5.134;2023-02-28T10:32:27;3.22;;;2.42;;
70545;SDS011;58098;51.680;5.134;2023-02-28T10:34:59;3.10;;;2.80;;
70545;SDS011;58098;51.680;5.134;2023-02-28T10:37:34;4.38;;;3.00;;
70545;SDS011;58098;51.680;5.134;2023-02-28T10:40:03;5.10;;;2.92;;
70545;SDS011;58098;51.680;5.134;2023-02-28T10:42:30;3.47;;;3.00;;
70545;SDS011;58098;51.680;5.134;2023-02-28T10:45:09;4.22;;;2.80;;
70545;SDS011;58098;51.680;5.134;2023-02-28T10:47:49;3.65;;;2.70;;
70545;SDS011;58098;51.680;5.134;2023-02-28T10:50:32;3.08;;;2.53;;
70545;SDS011;58098;51.680;5.134;2023-02-28T10:55:39;4.07;;;2.90;;
70545;SDS011;58098;51.680;5.134;2023-02-28T10:58:18;3.05;;;2.60;;
70545;SDS011;58098;51.680;5.134;2023-02-28T11:00:46;3.03;;;2.83;;
70545;SDS011;58098;51.680;5.134;2023-02-28T11:05:58;3.88;;;2.72;;
70545;SDS011;58098;51.680;5.134;2023-02-28T11:08:24;3.33;;;2.88;;
70545;SDS011;58098;51.680;5.134;2023-02-28T11:10:56;3.53;;;2.30;;
70545;SDS011;58098;51.680;5.134;2023-02-28T11:13:32;4.93;;;3.03;;
70545;SDS011;58098;51.680;5.134;2023-02-28T11:16:00;3.15;;;2.88;;
70545;SDS011;58098;51.680;5.134;2023-02-28T11:18:30;3.35;;;2.85;;
70545;SDS011;58098;51.680;5.134;2023-02-28T11:21:01;2.90;;;2.35;;
70545;SDS011;58098;51.680;5.134;2023-02-28T11:23:29;3.28;;;2.78;;
70545;SDS011;58098;51.680;5.134;2023-02-28T11:25:58;5.23;;;2.50;;
70545;SDS011;58098;51.680;5.134;2023-02-28T11:28:33;5.03;;;3.20;;
70545;SDS011;58098;51.680;5.134;2023-02-28T11:31:05;3.28;;;2.47;;
70545;SDS011;58098;51.680;5.134;2023-02-28T11:33:44;3.20;;;2.63;;
70545;SDS011;58098;51.680;5.134;2023-02-28T11:36:13;2.88;;;2.60;;
70545;SDS011;58098;51.680;5.134;2023-02-28T11:38:41;3.17;;;2.80;;
70545;SDS011;58098;51.680;5.134;2023-02-28T11:43:57;3.25;;;2.95;;
70545;SDS011;58098;51.680;5.134;2023-02-28T11:46:30;5.20;;;2.90;;
70545;SDS011;58098;51.680;5.134;2023-02-28T11:52:00;3.00;;;2.70;;
70545;SDS011;58098;51.680;5.134;2023-02-28T11:57:19;5.60;;;2.78;;
70545;SDS011;58098;51.680;5.134;2023-02-28T11:59:51;4.17;;;3.00;;
70545;SDS011;58098;51.680;5.134;2023-02-28T12:07:24;3.40;;;2.50;;
70545;SDS011;58098;51.680;5.134;2023-02-28T12:18:36;5.32;;;2.80;;
70545;SDS011;58098;51.680;5.134;2023-02-28T12:21:41;3.90;;;2.88;;
70545;SDS011;58098;51.680;5.134;2023-02-28T12:24:20;3.40;;;2.63;;
70545;SDS011;58098;51.680;5.134;2023-02-28T12:26:50;3.05;;;2.75;;
70545;SDS011;58098;51.680;5.134;2023-02-28T12:29:34;4.43;;;2.73;;
70545;SDS011;58098;51.680;5.134;2023-02-28T12:32:21;2.85;;;2.42;;
70545;SDS011;58098;51.680;5.134;2023-02-28T12:37:36;3.33;;;2.60;;
70545;SDS011;58098;51.680;5.134;2023-02-28T12:40:06;4.53;;;2.90;;
70545;SDS011;58098;51.680;5.134;2023-02-28T12:42:39;7.33;;;2.50;;
70545;SDS011;58098;51.680;5.134;2023-02-28T12:45:46;6.13;;;3.03;;
70545;SDS011;58098;51.680;5.134;2023-02-28T12:48:09;6.63;;;3.70;;
70545;SDS011;58098;51.680;5.134;2023-02-28T12:50:39;4.38;;;2.50;;
70545;SDS011;58098;51.680;5.134;2023-02-28T12:53:18;7.72;;;3.10;;
70545;SDS011;58098;51.680;5.134;2023-02-28T12:55:59;4.00;;;2.80;;
70545;SDS011;58098;51.680;5.134;2023-02-28T13:06:59;4.05;;;2.85;;
70545;SDS011;58098;51.680;5.134;2023-02-28T13:09:38;2.60;;;2.40;;
70545;SDS011;58098;51.680;5.134;2023-02-28T13:12:12;2.90;;;2.70;;
70545;SDS011;58098;51.680;5.134;2023-02-28T13:14:38;3.40;;;2.90;;
70545;SDS011;58098;51.680;5.134;2023-02-28T13:19:33;5.15;;;3.22;;
70545;SDS011;58098;51.680;5.134;2023-02-28T13:22:00;3.30;;;2.80;;
70545;SDS011;58098;51.680;5.134;2023-02-28T13:24:41;3.95;;;3.28;;
70545;SDS011;58098;51.680;5.134;2023-02-28T13:29:35;5.20;;;2.90;;
70545;SDS011;58098;51.680;5.134;2023-02-28T13:34:37;2.97;;;2.67;;
70545;SDS011;58098;51.680;5.134;2023-02-28T14:04:29;5.68;;;3.03;;
70545;SDS011;58098;51.680;5.134;2023-02-28T14:07:00;3.58;;;3.25;;
70545;SDS011;58098;51.680;5.134;2023-02-28T14:09:28;3.20;;;2.53;;
70545;SDS011;58098;51.680;5.134;2023-02-28T14:11:55;3.80;;;3.15;;
70545;SDS011;58098;51.680;5.134;2023-02-28T14:17:01;4.57;;;3.13;;
70545;SDS011;58098;51.680;5.134;2023-02-28T14:19:29;3.28;;;2.97;;
70545;SDS011;58098;51.680;5.134;2023-02-28T14:24:43;4.22;;;2.90;;
70545;SDS011;58098;51.680;5.134;2023-02-28T14:27:37;4.88;;;3.42;;
70545;SDS011;58098;51.680;5.134;2023-02-28T14:36:09;3.77;;;2.83;;
70545;SDS011;58098;51.680;5.134;2023-02-28T14:38:57;4.07;;;3.08;;
70545;SDS011;58098;51.680;5.134;2023-02-28T14:41:30;4.43;;;3.20;;
70545;SDS011;58098;51.680;5.134;2023-02-28T14:44:02;3.47;;;3.08;;
70545;SDS011;58098;51.680;5.134;2023-02-28T14:46:38;5.03;;;3.47;;
70545;SDS011;58098;51.680;5.134;2023-02-28T14:49:06;4.20;;;2.90;;
70545;SDS011;58098;51.680;5.134;2023-02-28T14:51:37;4.18;;;3.08;;
70545;SDS011;58098;51.680;5.134;2023-02-28T14:54:02;4.60;;;3.17;;
70545;SDS011;58098;51.680;5.134;2023-02-28T14:56:34;3.60;;;3.00;;
70545;SDS011;58098;51.680;5.134;2023-02-28T14:59:02;5.05;;;3.45;;
70545;SDS011;58098;51.680;5.134;2023-02-28T15:01:29;3.88;;;3.00;;
70545;SDS011;58098;51.680;5.134;2023-02-28T15:03:59;5.40;;;3.38;;
70545;SDS011;58098;51.680;5.134;2023-02-28T15:06:28;8.77;;;3.63;;
70545;SDS011;58098;51.680;5.134;2023-02-28T15:09:08;4.90;;;2.95;;
70545;SDS011;58098;51.680;5.134;2023-02-28T15:11:36;4.10;;;3.70;;
70545;SDS011;58098;51.680;5.134;2023-02-28T15:14:03;5.65;;;3.20;;
70545;SDS011;58098;51.680;5.134;2023-02-28T15:16:36;6.90;;;3.17;;
70545;SDS011;58098;51.680;5.134;2023-02-28T15:19:06;4.68;;;3.25;;
70545;SDS011;58098;51.680;5.134;2023-02-28T15:21:41;3.83;;;3.13;;
70545;SDS011;58098;51.680;5.134;2023-02-28T15:26:51;10.20;;;3.30;;
70545;SDS011;58098;51.680;5.134;2023-02-28T15:29:21;3.23;;;2.90;;
70545;SDS011;58098;51.680;5.134;2023-02-28T15:31:56;4.00;;;2.80;;
70545;SDS011;58098;51.680;5.134;2023-02-28T15:37:01;9.45;;;3.97;;
70545;SDS011;58098;51.680;5.134;2023-02-28T15:39:31;7.18;;;2.97;;
70545;SDS011;58098;51.680;5.134;2023-02-28T15:42:12;6.20;;;3.07;;
70545;SDS011;58098;51.680;5.134;2023-02-28T15:44:46;4.53;;;3.30;;
70545;SDS011;58098;51.680;5.134;2023-02-28T15:47:18;5.97;;;2.73;;
70545;SDS011;58098;51.680;5.134;2023-02-28T15:50:00;7.05;;;3.40;;
70545;SDS011;58098;51.680;5.134;2023-02-28T15:52:29;4.85;;;2.97;;
70545;SDS011;58098;51.680;5.134;2023-02-28T15:55:35;4.53;;;3.30;;
70545;SDS011;58098;51.680;5.134;2023-02-28T15:57:56;7.35;;;3.15;;
70545;SDS011;58098;51.680;5.134;2023-02-28T16:00:26;3.17;;;2.40;;
70545;SDS011;58098;51.680;5.134;2023-02-28T16:02:52;4.53;;;3.10;;
70545;SDS011;58098;51.680;5.134;2023-02-28T16:05:25;8.32;;;3.33;;
70545;SDS011;58098;51.680;5.134;2023-02-28T16:08:01;4.13;;;3.07;;
70545;SDS011;58098;51.680;5.134;2023-02-28T16:10:38;5.03;;;2.90;;
70545;SDS011;58098;51.680;5.134;2023-02-28T16:13:03;7.83;;;3.40;;
70545;SDS011;58098;51.680;5.134;2023-02-28T16:15:30;4.32;;;3.45;;
70545;SDS011;58098;51.680;5.134;2023-02-28T16:18:00;4.60;;;2.70;;
70545;SDS011;58098;51.680;5.134;2023-02-28T16:20:29;8.70;;;3.17;;
70545;SDS011;58098;51.680;5.134;2023-02-28T16:22:55;6.97;;;2.80;;
70545;SDS011;58098;51.680;5.134;2023-02-28T16:25:26;2.80;;;2.45;;
70545;SDS011;58098;51.680;5.134;2023-02-28T16:27:58;4.50;;;3.30;;
70545;SDS011;58098;51.680;5.134;2023-02-28T16:30:26;3.90;;;2.87;;
70545;SDS011;58098;51.680;5.134;2023-02-28T16:32:54;4.07;;;3.15;;
70545;SDS011;58098;51.680;5.134;2023-02-28T16:35:20;3.92;;;2.70;;
70545;SDS011;58098;51.680;5.134;2023-02-28T16:37:46;4.53;;;3.25;;
70545;SDS011;58098;51.680;5.134;2023-02-28T16:40:16;5.70;;;3.40;;
70545;SDS011;58098;51.680;5.134;2023-02-28T16:42:43;3.30;;;3.00;;
70545;SDS011;58098;51.680;5.134;2023-02-28T16:45:14;3.95;;;3.10;;
70545;SDS011;58098;51.680;5.134;2023-02-28T16:47:43;6.25;;;3.40;;
70545;SDS011;58098;51.680;5.134;2023-02-28T16:50:12;5.17;;;3.23;;
70545;SDS011;58098;51.680;5.134;2023-02-28T16:52:42;3.72;;;3.10;;
70545;SDS011;58098;51.680;5.134;2023-02-28T16:55:08;7.20;;;3.20;;
70545;SDS011;58098;51.680;5.134;2023-02-28T16:57:33;3.50;;;3.20;;
70545;SDS011;58098;51.680;5.134;2023-02-28T16:59:58;4.60;;;3.30;;
70545;SDS011;58098;51.680;5.134;2023-02-28T17:02:24;4.37;;;3.30;;
70545;SDS011;58098;51.680;5.134;2023-02-28T17:04:49;6.43;;;3.67;;
70545;SDS011;58098;51.680;5.134;2023-02-28T17:07:15;4.47;;;2.97;;
70545;SDS011;58098;51.680;5.134;2023-02-28T17:09:42;4.03;;;3.60;;
70545;SDS011;58098;51.680;5.134;2023-02-28T17:12:08;3.93;;;3.37;;
70545;SDS011;58098;51.680;5.134;2023-02-28T17:14:36;5.97;;;3.80;;
70545;SDS011;58098;51.680;5.134;2023-02-28T17:17:04;5.15;;;4.10;;
70545;SDS011;58098;51.680;5.134;2023-02-28T17:19:30;5.93;;;3.75;;
70545;SDS011;58098;51.680;5.134;2023-02-28T17:21:55;5.80;;;4.07;;